sensor_id;sensor_type;location;lat;lon;timestamp;P1;durP1;ratioP1;P2;durP2;ratioP2
64957;SDS011;51486;50.232;19.208;2023-06-22T00:02:27;4.60;;;2.83;;
64957;SDS011;51486;50.232;19.208;2023-06-22T00:05:13;5.27;;;2.93;;
64957;SDS011;51486;50.232;19.208;2023-06-22T00:08:01;5.40;;;2.80;;
64957;SDS011;51486;50.232;19.208;2023-06-22T00:10:48;7.13;;;3.03;;
64957;SDS011;51486;50.232;19.208;2023-06-22T00:13:34;6.70;;;2.30;;
64957;SDS011;51486;50.232;19.208;2023-06-22T00:16:20;4.67;;;2.87;;
64957;SDS011;51486;50.232;19.208;2023-06-22T00:19:05;8.27;;;3.20;;
64957;SDS011;51486;50.232;19.208;2023-06-22T00:21:51;8.63;;;3.77;;
64957;SDS011;51486;50.232;19.208;2023-06-22T00:24:39;4.70;;;2.77;;
64957;SDS011;51486;50.232;19.208;2023-06-22T00:27:25;2.90;;;1.90;;
64957;SDS011;51486;50.232;19.208;2023-06-22T00:30:11;4.93;;;2.43;;
64957;SDS011;51486;50.232;19.208;2023-06-22T00:32:57;3.43;;;2.10;;
64957;SDS011;51486;50.232;19.208;2023-06-22T00:35:43;6.27;;;3.43;;
64957;SDS011;51486;50.232;19.208;2023-06-22T00:38:29;12.27;;;2.53;;
64957;SDS011;51486;50.232;19.208;2023-06-22T00:41:15;3.97;;;2.60;;
64957;SDS011;51486;50.232;19.208;2023-06-22T00:44:01;7.00;;;3.03;;
64957;SDS011;51486;50.232;19.208;2023-06-22T00:46:46;4.70;;;2.63;;
64957;SDS011;51486;50.232;19.208;2023-06-22T00:49:32;7.60;;;2.97;;
64957;SDS011;51486;50.232;19.208;2023-06-22T00:52:21;3.87;;;2.17;;
64957;SDS011;51486;50.232;19.208;2023-06-22T00:55:12;7.20;;;3.60;;
64957;SDS011;51486;50.232;19.208;2023-06-22T00:57:59;3.23;;;2.33;;
64957;SDS011;51486;50.232;19.208;2023-06-22T01:00:45;6.93;;;2.77;;
64957;SDS011;51486;50.232;19.208;2023-06-22T01:03:31;17.80;;;2.87;;
64957;SDS011;51486;50.232;19.208;2023-06-22T01:06:19;9.07;;;3.50;;
64957;SDS011;51486;50.232;19.208;2023-06-22T01:12:02;6.70;;;2.60;;
64957;SDS011;51486;50.232;19.208;2023-06-22T01:14:53;5.67;;;2.30;;
64957;SDS011;51486;50.232;19.208;2023-06-22T01:17:43;4.00;;;2.70;;
64957;SDS011;51486;50.232;19.208;2023-06-22T01:20:29;7.30;;;2.73;;
64957;SDS011;51486;50.232;19.208;2023-06-22T01:26:18;6.10;;;2.50;;
64957;SDS011;51486;50.232;19.208;2023-06-22T01:29:07;4.10;;;1.80;;
64957;SDS011;51486;50.232;19.208;2023-06-22T01:31:57;3.70;;;1.90;;
64957;SDS011;51486;50.232;19.208;2023-06-22T01:34:43;7.00;;;3.17;;
64957;SDS011;51486;50.232;19.208;2023-06-22T01:37:31;5.20;;;3.23;;
64957;SDS011;51486;50.232;19.208;2023-06-22T01:40:18;5.40;;;2.70;;
64957;SDS011;51486;50.232;19.208;2023-06-22T01:43:05;5.40;;;2.80;;
64957;SDS011;51486;50.232;19.208;2023-06-22T01:45:51;5.10;;;2.53;;
64957;SDS011;51486;50.232;19.208;2023-06-22T01:48:38;4.43;;;2.87;;
64957;SDS011;51486;50.232;19.208;2023-06-22T01:51:24;4.53;;;2.73;;
64957;SDS011;51486;50.232;19.208;2023-06-22T01:54:10;4.87;;;3.07;;
64957;SDS011;51486;50.232;19.208;2023-06-22T01:56:55;5.67;;;2.63;;
64957;SDS011;51486;50.232;19.208;2023-06-22T02:06:01;4.13;;;2.60;;
64957;SDS011;51486;50.232;19.208;2023-06-22T02:08:52;7.30;;;3.10;;
64957;SDS011;51486;50.232;19.208;2023-06-22T02:11:42;13.00;;;2.77;;
64957;SDS011;51486;50.232;19.208;2023-06-22T02:14:30;14.23;;;3.37;;
64957;SDS011;51486;50.232;19.208;2023-06-22T02:17:17;4.67;;;2.63;;
64957;SDS011;51486;50.232;19.208;2023-06-22T02:20:03;9.50;;;3.20;;
64957;SDS011;51486;50.232;19.208;2023-06-22T02:22:51;8.97;;;3.10;;
64957;SDS011;51486;50.232;19.208;2023-06-22T02:25:37;8.17;;;3.10;;
64957;SDS011;51486;50.232;19.208;2023-06-22T02:28:23;6.30;;;2.80;;
64957;SDS011;51486;50.232;19.208;2023-06-22T02:31:09;9.60;;;2.90;;
64957;SDS011;51486;50.232;19.208;2023-06-22T02:33:55;5.73;;;2.60;;
64957;SDS011;51486;50.232;19.208;2023-06-22T02:36:41;7.63;;;3.37;;
64957;SDS011;51486;50.232;19.208;2023-06-22T02:39:36;6.17;;;2.87;;
64957;SDS011;51486;50.232;19.208;2023-06-22T02:42:22;12.93;;;3.07;;
64957;SDS011;51486;50.232;19.208;2023-06-22T02:45:08;9.47;;;3.23;;
64957;SDS011;51486;50.232;19.208;2023-06-22T02:47:54;6.07;;;2.53;;
64957;SDS011;51486;50.232;19.208;2023-06-22T02:50:40;5.37;;;2.87;;
64957;SDS011;51486;50.232;19.208;2023-06-22T02:53:26;7.10;;;3.57;;
64957;SDS011;51486;50.232;19.208;2023-06-22T02:56:12;9.37;;;3.23;;
64957;SDS011;51486;50.232;19.208;2023-06-22T02:58:58;9.63;;;3.30;;
64957;SDS011;51486;50.232;19.208;2023-06-22T03:01:46;7.30;;;2.80;;
64957;SDS011;51486;50.232;19.208;2023-06-22T03:04:32;8.50;;;3.10;;
64957;SDS011;51486;50.232;19.208;2023-06-22T03:07:18;5.07;;;2.90;;
64957;SDS011;51486;50.232;19.208;2023-06-22T03:10:04;7.37;;;2.87;;
64957;SDS011;51486;50.232;19.208;2023-06-22T03:12:50;6.37;;;3.60;;
64957;SDS011;51486;50.232;19.208;2023-06-22T03:15:36;6.07;;;2.50;;
64957;SDS011;51486;50.232;19.208;2023-06-22T03:18:21;5.47;;;2.80;;
64957;SDS011;51486;50.232;19.208;2023-06-22T03:21:07;8.17;;;3.50;;
64957;SDS011;51486;50.232;19.208;2023-06-22T03:23:53;8.33;;;3.47;;
64957;SDS011;51486;50.232;19.208;2023-06-22T03:26:39;16.10;;;3.07;;
64957;SDS011;51486;50.232;19.208;2023-06-22T03:29:25;8.23;;;2.70;;
64957;SDS011;51486;50.232;19.208;2023-06-22T03:32:11;6.73;;;2.90;;
64957;SDS011;51486;50.232;19.208;2023-06-22T03:34:56;10.53;;;3.57;;
64957;SDS011;51486;50.232;19.208;2023-06-22T03:37:44;6.50;;;3.07;;
64957;SDS011;51486;50.232;19.208;2023-06-22T03:40:29;6.10;;;3.00;;
64957;SDS011;51486;50.232;19.208;2023-06-22T03:43:15;6.93;;;3.37;;
64957;SDS011;51486;50.232;19.208;2023-06-22T03:46:01;5.03;;;3.10;;
64957;SDS011;51486;50.232;19.208;2023-06-22T03:48:46;5.57;;;2.80;;
64957;SDS011;51486;50.232;19.208;2023-06-22T03:51:32;13.73;;;3.40;;
64957;SDS011;51486;50.232;19.208;2023-06-22T03:54:18;5.47;;;2.93;;
64957;SDS011;51486;50.232;19.208;2023-06-22T03:57:04;6.00;;;3.00;;
64957;SDS011;51486;50.232;19.208;2023-06-22T03:59:50;4.00;;;2.63;;
64957;SDS011;51486;50.232;19.208;2023-06-22T04:02:36;4.40;;;2.67;;
64957;SDS011;51486;50.232;19.208;2023-06-22T04:05:22;8.73;;;3.23;;
64957;SDS011;51486;50.232;19.208;2023-06-22T04:08:08;5.27;;;2.70;;
64957;SDS011;51486;50.232;19.208;2023-06-22T04:10:54;6.00;;;3.33;;
64957;SDS011;51486;50.232;19.208;2023-06-22T04:13:39;5.20;;;2.97;;
64957;SDS011;51486;50.232;19.208;2023-06-22T04:16:25;8.43;;;4.13;;
64957;SDS011;51486;50.232;19.208;2023-06-22T04:19:11;4.70;;;3.03;;
64957;SDS011;51486;50.232;19.208;2023-06-22T04:22:01;5.53;;;2.90;;
64957;SDS011;51486;50.232;19.208;2023-06-22T04:24:48;7.57;;;3.23;;
64957;SDS011;51486;50.232;19.208;2023-06-22T04:27:37;7.40;;;3.40;;
64957;SDS011;51486;50.232;19.208;2023-06-22T04:30:25;7.97;;;2.93;;
64957;SDS011;51486;50.232;19.208;2023-06-22T04:33:11;4.83;;;3.00;;
64957;SDS011;51486;50.232;19.208;2023-06-22T04:36:00;4.83;;;2.93;;
64957;SDS011;51486;50.232;19.208;2023-06-22T04:38:49;6.10;;;3.07;;
64957;SDS011;51486;50.232;19.208;2023-06-22T04:41:38;9.80;;;3.43;;
64957;SDS011;51486;50.232;19.208;2023-06-22T04:44:27;6.93;;;3.53;;
64957;SDS011;51486;50.232;19.208;2023-06-22T04:47:13;5.30;;;3.23;;
64957;SDS011;51486;50.232;19.208;2023-06-22T04:49:59;7.17;;;3.70;;
64957;SDS011;51486;50.232;19.208;2023-06-22T04:52:44;6.00;;;3.20;;
64957;SDS011;51486;50.232;19.208;2023-06-22T04:55:31;5.17;;;2.70;;
64957;SDS011;51486;50.232;19.208;2023-06-22T04:58:17;6.43;;;3.60;;
64957;SDS011;51486;50.232;19.208;2023-06-22T05:01:05;4.87;;;2.90;;
64957;SDS011;51486;50.232;19.208;2023-06-22T05:03:50;8.60;;;3.60;;
64957;SDS011;51486;50.232;19.208;2023-06-22T05:06:40;6.23;;;3.50;;
64957;SDS011;51486;50.232;19.208;2023-06-22T05:09:26;13.90;;;3.83;;
64957;SDS011;51486;50.232;19.208;2023-06-22T05:12:12;10.27;;;4.00;;
64957;SDS011;51486;50.232;19.208;2023-06-22T05:14:57;9.73;;;4.27;;
64957;SDS011;51486;50.232;19.208;2023-06-22T05:17:43;5.63;;;3.47;;
64957;SDS011;51486;50.232;19.208;2023-06-22T05:20:30;7.88;;;3.03;;
64957;SDS011;51486;50.232;19.208;2023-06-22T05:23:16;7.05;;;3.60;;
64957;SDS011;51486;50.232;19.208;2023-06-22T05:26:01;7.03;;;3.72;;
64957;SDS011;51486;50.232;19.208;2023-06-22T05:28:47;6.05;;;3.28;;
64957;SDS011;51486;50.232;19.208;2023-06-22T05:31:33;8.07;;;4.25;;
64957;SDS011;51486;50.232;19.208;2023-06-22T05:34:19;9.20;;;3.90;;
64957;SDS011;51486;50.232;19.208;2023-06-22T05:37:05;10.23;;;5.43;;
64957;SDS011;51486;50.232;19.208;2023-06-22T05:39:51;8.07;;;5.22;;
64957;SDS011;51486;50.232;19.208;2023-06-22T05:42:37;25.30;;;6.63;;
64957;SDS011;51486;50.232;19.208;2023-06-22T05:45:23;8.05;;;5.30;;
64957;SDS011;51486;50.232;19.208;2023-06-22T05:48:09;10.05;;;5.32;;
64957;SDS011;51486;50.232;19.208;2023-06-22T05:50:55;15.50;;;6.10;;
64957;SDS011;51486;50.232;19.208;2023-06-22T05:53:40;14.63;;;6.45;;
64957;SDS011;51486;50.232;19.208;2023-06-22T05:56:26;12.25;;;5.63;;
64957;SDS011;51486;50.232;19.208;2023-06-22T05:59:12;9.80;;;5.38;;
64957;SDS011;51486;50.232;19.208;2023-06-22T06:01:57;13.63;;;5.65;;
64957;SDS011;51486;50.232;19.208;2023-06-22T06:04:43;10.07;;;5.47;;
64957;SDS011;51486;50.232;19.208;2023-06-22T06:07:29;16.50;;;6.72;;
64957;SDS011;51486;50.232;19.208;2023-06-22T06:10:15;11.68;;;5.95;;
64957;SDS011;51486;50.232;19.208;2023-06-22T06:13:01;11.63;;;5.03;;
64957;SDS011;51486;50.232;19.208;2023-06-22T06:15:47;14.15;;;6.65;;
64957;SDS011;51486;50.232;19.208;2023-06-22T06:18:33;13.90;;;6.57;;
64957;SDS011;51486;50.232;19.208;2023-06-22T06:21:19;9.68;;;5.90;;
64957;SDS011;51486;50.232;19.208;2023-06-22T06:24:04;12.10;;;6.35;;
64957;SDS011;51486;50.232;19.208;2023-06-22T06:26:50;13.43;;;7.05;;
64957;SDS011;51486;50.232;19.208;2023-06-22T06:29:36;8.98;;;5.35;;
64957;SDS011;51486;50.232;19.208;2023-06-22T06:32:22;20.95;;;7.15;;
64957;SDS011;51486;50.232;19.208;2023-06-22T06:35:08;12.40;;;5.93;;
64957;SDS011;51486;50.232;19.208;2023-06-22T06:37:55;8.93;;;5.28;;
64957;SDS011;51486;50.232;19.208;2023-06-22T06:40:40;15.43;;;6.57;;
64957;SDS011;51486;50.232;19.208;2023-06-22T06:43:26;13.18;;;5.97;;
64957;SDS011;51486;50.232;19.208;2023-06-22T06:46:12;12.32;;;5.72;;
64957;SDS011;51486;50.232;19.208;2023-06-22T06:48:57;16.52;;;6.68;;
64957;SDS011;51486;50.232;19.208;2023-06-22T06:51:43;12.93;;;6.18;;
64957;SDS011;51486;50.232;19.208;2023-06-22T06:54:29;11.18;;;6.20;;
64957;SDS011;51486;50.232;19.208;2023-06-22T06:57:15;9.40;;;5.93;;
64957;SDS011;51486;50.232;19.208;2023-06-22T07:00:01;10.60;;;6.05;;
64957;SDS011;51486;50.232;19.208;2023-06-22T07:02:46;10.32;;;6.30;;
64957;SDS011;51486;50.232;19.208;2023-06-22T07:05:33;14.40;;;7.60;;
64957;SDS011;51486;50.232;19.208;2023-06-22T07:08:19;17.63;;;7.13;;
64957;SDS011;51486;50.232;19.208;2023-06-22T07:11:05;15.40;;;7.05;;
64957;SDS011;51486;50.232;19.208;2023-06-22T07:13:51;11.10;;;6.30;;
64957;SDS011;51486;50.232;19.208;2023-06-22T07:16:36;12.45;;;7.30;;
64957;SDS011;51486;50.232;19.208;2023-06-22T07:19:26;13.48;;;7.20;;
64957;SDS011;51486;50.232;19.208;2023-06-22T07:22:12;11.40;;;6.75;;
64957;SDS011;51486;50.232;19.208;2023-06-22T07:24:58;16.25;;;7.00;;
64957;SDS011;51486;50.232;19.208;2023-06-22T07:27:45;11.80;;;6.40;;
64957;SDS011;51486;50.232;19.208;2023-06-22T07:30:47;11.73;;;5.60;;
64957;SDS011;51486;50.232;19.208;2023-06-22T07:33:32;9.05;;;5.60;;
64957;SDS011;51486;50.232;19.208;2023-06-22T07:36:18;14.52;;;6.00;;
64957;SDS011;51486;50.232;19.208;2023-06-22T07:39:04;8.82;;;5.53;;
64957;SDS011;51486;50.232;19.208;2023-06-22T07:41:50;11.07;;;6.10;;
64957;SDS011;51486;50.232;19.208;2023-06-22T07:44:36;13.18;;;6.18;;
64957;SDS011;51486;50.232;19.208;2023-06-22T07:47:22;8.35;;;5.15;;
64957;SDS011;51486;50.232;19.208;2023-06-22T07:50:11;6.13;;;4.13;;
64957;SDS011;51486;50.232;19.208;2023-06-22T07:52:56;9.27;;;5.28;;
64957;SDS011;51486;50.232;19.208;2023-06-22T07:55:42;11.82;;;5.05;;
64957;SDS011;51486;50.232;19.208;2023-06-22T07:58:28;11.13;;;4.97;;
64957;SDS011;51486;50.232;19.208;2023-06-22T08:01:14;11.77;;;4.43;;
64957;SDS011;51486;50.232;19.208;2023-06-22T08:04:00;8.25;;;4.53;;
64957;SDS011;51486;50.232;19.208;2023-06-22T08:06:46;6.75;;;4.28;;
64957;SDS011;51486;50.232;19.208;2023-06-22T08:09:32;6.03;;;3.60;;
64957;SDS011;51486;50.232;19.208;2023-06-22T08:12:18;7.70;;;3.47;;
64957;SDS011;51486;50.232;19.208;2023-06-22T08:15:04;7.03;;;4.38;;
64957;SDS011;51486;50.232;19.208;2023-06-22T08:17:50;4.45;;;3.10;;
64957;SDS011;51486;50.232;19.208;2023-06-22T08:20:37;8.43;;;4.35;;
64957;SDS011;51486;50.232;19.208;2023-06-22T08:23:23;15.60;;;5.53;;
64957;SDS011;51486;50.232;19.208;2023-06-22T08:26:09;7.00;;;4.15;;
64957;SDS011;51486;50.232;19.208;2023-06-22T08:28:54;7.03;;;3.85;;
64957;SDS011;51486;50.232;19.208;2023-06-22T08:31:40;9.10;;;4.07;;
64957;SDS011;51486;50.232;19.208;2023-06-22T08:34:26;20.15;;;3.83;;
64957;SDS011;51486;50.232;19.208;2023-06-22T08:37:13;5.53;;;3.65;;
64957;SDS011;51486;50.232;19.208;2023-06-22T08:39:59;6.20;;;3.42;;
64957;SDS011;51486;50.232;19.208;2023-06-22T08:42:46;5.97;;;3.67;;
64957;SDS011;51486;50.232;19.208;2023-06-22T08:45:33;5.38;;;3.38;;
64957;SDS011;51486;50.232;19.208;2023-06-22T08:48:18;6.65;;;3.60;;
64957;SDS011;51486;50.232;19.208;2023-06-22T08:51:04;6.28;;;3.40;;
64957;SDS011;51486;50.232;19.208;2023-06-22T08:53:50;5.30;;;2.63;;
64957;SDS011;51486;50.232;19.208;2023-06-22T08:56:36;7.35;;;3.45;;
64957;SDS011;51486;50.232;19.208;2023-06-22T08:59:22;7.55;;;3.78;;
64957;SDS011;51486;50.232;19.208;2023-06-22T09:02:07;12.25;;;3.30;;
64957;SDS011;51486;50.232;19.208;2023-06-22T09:04:53;5.63;;;2.75;;
64957;SDS011;51486;50.232;19.208;2023-06-22T09:07:41;7.13;;;3.38;;
64957;SDS011;51486;50.232;19.208;2023-06-22T09:10:27;5.70;;;2.75;;
64957;SDS011;51486;50.232;19.208;2023-06-22T09:13:12;11.13;;;2.90;;
64957;SDS011;51486;50.232;19.208;2023-06-22T09:15:58;3.97;;;2.70;;
64957;SDS011;51486;50.232;19.208;2023-06-22T09:18:46;7.25;;;2.50;;
64957;SDS011;51486;50.232;19.208;2023-06-22T09:21:32;5.75;;;2.67;;
64957;SDS011;51486;50.232;19.208;2023-06-22T09:24:18;4.75;;;2.30;;
64957;SDS011;51486;50.232;19.208;2023-06-22T09:27:04;8.00;;;2.90;;
64957;SDS011;51486;50.232;19.208;2023-06-22T09:29:50;3.85;;;2.72;;
64957;SDS011;51486;50.232;19.208;2023-06-22T09:32:35;4.88;;;2.13;;
64957;SDS011;51486;50.232;19.208;2023-06-22T09:35:21;3.22;;;1.88;;
64957;SDS011;51486;50.232;19.208;2023-06-22T09:38:07;4.40;;;2.33;;
64957;SDS011;51486;50.232;19.208;2023-06-22T09:40:53;12.35;;;2.58;;
64957;SDS011;51486;50.232;19.208;2023-06-22T09:43:38;3.15;;;2.33;;
64957;SDS011;51486;50.232;19.208;2023-06-22T09:46:24;7.90;;;2.28;;
64957;SDS011;51486;50.232;19.208;2023-06-22T09:49:13;6.82;;;1.92;;
64957;SDS011;51486;50.232;19.208;2023-06-22T09:51:59;5.75;;;2.63;;
64957;SDS011;51486;50.232;19.208;2023-06-22T09:54:44;3.28;;;2.35;;
64957;SDS011;51486;50.232;19.208;2023-06-22T09:57:30;3.75;;;2.05;;
64957;SDS011;51486;50.232;19.208;2023-06-22T10:00:16;3.78;;;2.33;;
64957;SDS011;51486;50.232;19.208;2023-06-22T10:03:02;4.00;;;2.28;;
64957;SDS011;51486;50.232;19.208;2023-06-22T10:05:48;2.83;;;1.92;;
64957;SDS011;51486;50.232;19.208;2023-06-22T10:08:34;3.00;;;2.30;;
64957;SDS011;51486;50.232;19.208;2023-06-22T10:11:20;6.85;;;2.58;;
64957;SDS011;51486;50.232;19.208;2023-06-22T10:14:08;3.70;;;1.60;;
64957;SDS011;51486;50.232;19.208;2023-06-22T10:16:53;4.38;;;2.00;;
64957;SDS011;51486;50.232;19.208;2023-06-22T10:19:39;3.40;;;2.05;;
64957;SDS011;51486;50.232;19.208;2023-06-22T10:22:26;3.88;;;2.42;;
64957;SDS011;51486;50.232;19.208;2023-06-22T10:25:12;5.38;;;2.65;;
64957;SDS011;51486;50.232;19.208;2023-06-22T10:27:58;3.25;;;2.10;;
64957;SDS011;51486;50.232;19.208;2023-06-22T10:30:44;2.67;;;1.80;;
64957;SDS011;51486;50.232;19.208;2023-06-22T10:33:30;3.00;;;2.15;;
64957;SDS011;51486;50.232;19.208;2023-06-22T10:36:16;3.40;;;2.20;;
64957;SDS011;51486;50.232;19.208;2023-06-22T10:39:01;2.95;;;1.95;;
64957;SDS011;51486;50.232;19.208;2023-06-22T10:41:48;2.97;;;2.03;;
64957;SDS011;51486;50.232;19.208;2023-06-22T10:44:33;3.47;;;2.22;;
64957;SDS011;51486;50.232;19.208;2023-06-22T10:47:19;3.22;;;2.50;;
64957;SDS011;51486;50.232;19.208;2023-06-22T10:50:05;3.03;;;2.05;;
64957;SDS011;51486;50.232;19.208;2023-06-22T10:52:51;3.00;;;1.98;;
64957;SDS011;51486;50.232;19.208;2023-06-22T10:55:37;4.30;;;2.47;;
64957;SDS011;51486;50.232;19.208;2023-06-22T10:58:23;2.97;;;2.03;;
64957;SDS011;51486;50.232;19.208;2023-06-22T11:01:09;4.70;;;2.40;;
64957;SDS011;51486;50.232;19.208;2023-06-22T11:03:54;2.35;;;1.65;;
64957;SDS011;51486;50.232;19.208;2023-06-22T11:06:40;4.57;;;2.17;;
64957;SDS011;51486;50.232;19.208;2023-06-22T11:09:26;2.33;;;1.80;;
64957;SDS011;51486;50.232;19.208;2023-06-22T11:12:12;5.72;;;2.67;;
64957;SDS011;51486;50.232;19.208;2023-06-22T11:14:58;4.20;;;2.42;;
64957;SDS011;51486;50.232;19.208;2023-06-22T11:17:43;3.05;;;1.95;;
64957;SDS011;51486;50.232;19.208;2023-06-22T11:20:29;4.63;;;2.53;;
64957;SDS011;51486;50.232;19.208;2023-06-22T11:23:15;4.75;;;2.22;;
64957;SDS011;51486;50.232;19.208;2023-06-22T11:26:01;4.55;;;2.63;;
64957;SDS011;51486;50.232;19.208;2023-06-22T11:28:46;4.38;;;2.28;;
64957;SDS011;51486;50.232;19.208;2023-06-22T11:31:32;4.13;;;2.33;;
64957;SDS011;51486;50.232;19.208;2023-06-22T11:34:19;6.63;;;2.60;;
64957;SDS011;51486;50.232;19.208;2023-06-22T11:37:05;5.18;;;2.50;;
64957;SDS011;51486;50.232;19.208;2023-06-22T11:39:51;4.53;;;2.33;;
64957;SDS011;51486;50.232;19.208;2023-06-22T11:42:37;4.20;;;2.15;;
64957;SDS011;51486;50.232;19.208;2023-06-22T11:45:23;4.20;;;2.30;;
64957;SDS011;51486;50.232;19.208;2023-06-22T11:48:09;2.58;;;1.67;;
64957;SDS011;51486;50.232;19.208;2023-06-22T11:50:55;4.22;;;2.53;;
64957;SDS011;51486;50.232;19.208;2023-06-22T11:53:41;3.45;;;2.45;;
64957;SDS011;51486;50.232;19.208;2023-06-22T11:56:26;3.78;;;2.42;;
64957;SDS011;51486;50.232;19.208;2023-06-22T11:59:13;2.80;;;2.05;;
64957;SDS011;51486;50.232;19.208;2023-06-22T12:01:59;3.33;;;2.47;;
64957;SDS011;51486;50.232;19.208;2023-06-22T12:04:45;2.80;;;2.10;;
64957;SDS011;51486;50.232;19.208;2023-06-22T12:07:30;4.75;;;2.58;;
64957;SDS011;51486;50.232;19.208;2023-06-22T12:10:17;6.60;;;2.72;;
64957;SDS011;51486;50.232;19.208;2023-06-22T12:13:03;5.95;;;2.80;;
64957;SDS011;51486;50.232;19.208;2023-06-22T12:15:48;3.28;;;2.42;;
64957;SDS011;51486;50.232;19.208;2023-06-22T12:18:34;3.42;;;2.42;;
64957;SDS011;51486;50.232;19.208;2023-06-22T12:21:20;3.88;;;2.35;;
64957;SDS011;51486;50.232;19.208;2023-06-22T12:24:06;5.47;;;3.00;;
64957;SDS011;51486;50.232;19.208;2023-06-22T12:26:51;4.47;;;2.58;;
64957;SDS011;51486;50.232;19.208;2023-06-22T12:29:37;3.70;;;2.63;;
64957;SDS011;51486;50.232;19.208;2023-06-22T12:32:23;4.07;;;2.45;;
64957;SDS011;51486;50.232;19.208;2023-06-22T12:35:09;9.63;;;3.08;;
64957;SDS011;51486;50.232;19.208;2023-06-22T12:37:59;5.68;;;3.17;;
64957;SDS011;51486;50.232;19.208;2023-06-22T12:40:44;5.25;;;2.55;;
64957;SDS011;51486;50.232;19.208;2023-06-22T12:43:32;16.58;;;2.35;;
64957;SDS011;51486;50.232;19.208;2023-06-22T12:46:18;4.28;;;2.63;;
64957;SDS011;51486;50.232;19.208;2023-06-22T12:49:04;3.80;;;2.85;;
64957;SDS011;51486;50.232;19.208;2023-06-22T12:51:50;5.05;;;2.83;;
64957;SDS011;51486;50.232;19.208;2023-06-22T12:54:35;4.53;;;2.70;;
64957;SDS011;51486;50.232;19.208;2023-06-22T12:57:21;5.45;;;3.05;;
64957;SDS011;51486;50.232;19.208;2023-06-22T13:00:07;6.10;;;2.95;;
64957;SDS011;51486;50.232;19.208;2023-06-22T13:02:55;7.40;;;3.20;;
64957;SDS011;51486;50.232;19.208;2023-06-22T13:05:41;4.70;;;2.80;;
64957;SDS011;51486;50.232;19.208;2023-06-22T13:08:27;3.88;;;2.78;;
64957;SDS011;51486;50.232;19.208;2023-06-22T13:11:12;4.55;;;2.47;;
64957;SDS011;51486;50.232;19.208;2023-06-22T13:13:58;4.10;;;2.75;;
64957;SDS011;51486;50.232;19.208;2023-06-22T13:16:44;5.03;;;2.40;;
64957;SDS011;51486;50.232;19.208;2023-06-22T13:19:29;5.65;;;2.90;;
64957;SDS011;51486;50.232;19.208;2023-06-22T13:22:28;5.95;;;2.83;;
64957;SDS011;51486;50.232;19.208;2023-06-22T13:25:15;3.90;;;2.65;;
64957;SDS011;51486;50.232;19.208;2023-06-22T13:28:04;3.67;;;2.67;;
64957;SDS011;51486;50.232;19.208;2023-06-22T13:30:50;3.55;;;2.42;;
64957;SDS011;51486;50.232;19.208;2023-06-22T13:33:35;4.53;;;2.53;;
64957;SDS011;51486;50.232;19.208;2023-06-22T13:36:23;7.03;;;2.65;;
64957;SDS011;51486;50.232;19.208;2023-06-22T13:39:09;5.53;;;3.03;;
64957;SDS011;51486;50.232;19.208;2023-06-22T13:41:54;3.78;;;2.65;;
64957;SDS011;51486;50.232;19.208;2023-06-22T13:44:40;8.07;;;3.83;;
64957;SDS011;51486;50.232;19.208;2023-06-22T13:47:26;3.53;;;2.30;;
64957;SDS011;51486;50.232;19.208;2023-06-22T13:50:11;6.32;;;3.50;;
64957;SDS011;51486;50.232;19.208;2023-06-22T13:53:00;5.07;;;2.65;;
64957;SDS011;51486;50.232;19.208;2023-06-22T13:55:46;5.55;;;2.88;;
64957;SDS011;51486;50.232;19.208;2023-06-22T13:58:33;4.97;;;2.42;;
64957;SDS011;51486;50.232;19.208;2023-06-22T14:01:18;4.30;;;2.60;;
64957;SDS011;51486;50.232;19.208;2023-06-22T14:04:04;3.95;;;2.40;;
64957;SDS011;51486;50.232;19.208;2023-06-22T14:06:50;13.93;;;2.47;;
64957;SDS011;51486;50.232;19.208;2023-06-22T14:09:35;4.97;;;3.30;;
64957;SDS011;51486;50.232;19.208;2023-06-22T14:12:21;4.75;;;2.75;;
64957;SDS011;51486;50.232;19.208;2023-06-22T14:15:07;4.00;;;2.33;;
64957;SDS011;51486;50.232;19.208;2023-06-22T14:17:53;3.50;;;2.10;;
64957;SDS011;51486;50.232;19.208;2023-06-22T14:20:38;9.73;;;3.17;;
64957;SDS011;51486;50.232;19.208;2023-06-22T14:23:25;4.20;;;2.60;;
64957;SDS011;51486;50.232;19.208;2023-06-22T14:26:12;3.55;;;2.58;;
64957;SDS011;51486;50.232;19.208;2023-06-22T14:28:58;4.47;;;3.05;;
64957;SDS011;51486;50.232;19.208;2023-06-22T14:31:44;4.40;;;2.58;;
64957;SDS011;51486;50.232;19.208;2023-06-22T14:34:31;5.63;;;3.25;;
64957;SDS011;51486;50.232;19.208;2023-06-22T14:37:16;5.10;;;3.25;;
64957;SDS011;51486;50.232;19.208;2023-06-22T14:40:02;3.15;;;2.33;;
64957;SDS011;51486;50.232;19.208;2023-06-22T14:42:48;8.02;;;3.05;;
64957;SDS011;51486;50.232;19.208;2023-06-22T14:45:34;3.55;;;2.35;;
64957;SDS011;51486;50.232;19.208;2023-06-22T14:48:20;2.80;;;2.35;;
64957;SDS011;51486;50.232;19.208;2023-06-22T14:51:05;6.20;;;2.67;;
64957;SDS011;51486;50.232;19.208;2023-06-22T14:53:51;4.18;;;2.45;;
64957;SDS011;51486;50.232;19.208;2023-06-22T14:56:37;4.50;;;2.60;;
64957;SDS011;51486;50.232;19.208;2023-06-22T14:59:23;4.53;;;2.63;;
64957;SDS011;51486;50.232;19.208;2023-06-22T15:02:09;3.20;;;2.17;;
64957;SDS011;51486;50.232;19.208;2023-06-22T15:04:54;4.38;;;2.60;;
64957;SDS011;51486;50.232;19.208;2023-06-22T15:07:41;4.18;;;2.33;;
64957;SDS011;51486;50.232;19.208;2023-06-22T15:10:26;4.80;;;2.95;;
64957;SDS011;51486;50.232;19.208;2023-06-22T15:13:12;6.82;;;2.97;;
64957;SDS011;51486;50.232;19.208;2023-06-22T15:15:58;4.18;;;2.88;;
64957;SDS011;51486;50.232;19.208;2023-06-22T15:18:43;4.00;;;2.85;;
64957;SDS011;51486;50.232;19.208;2023-06-22T15:21:30;3.83;;;2.88;;
64957;SDS011;51486;50.232;19.208;2023-06-22T15:24:16;4.60;;;2.40;;
64957;SDS011;51486;50.232;19.208;2023-06-22T15:27:02;3.58;;;2.13;;
64957;SDS011;51486;50.232;19.208;2023-06-22T15:29:48;2.38;;;1.77;;
64957;SDS011;51486;50.232;19.208;2023-06-22T15:32:33;5.60;;;2.55;;
64957;SDS011;51486;50.232;19.208;2023-06-22T15:35:19;5.72;;;2.88;;
64957;SDS011;51486;50.232;19.208;2023-06-22T15:38:05;3.72;;;2.58;;
64957;SDS011;51486;50.232;19.208;2023-06-22T15:40:51;4.53;;;2.47;;
64957;SDS011;51486;50.232;19.208;2023-06-22T15:43:36;17.55;;;2.78;;
64957;SDS011;51486;50.232;19.208;2023-06-22T15:46:23;4.57;;;2.63;;
64957;SDS011;51486;50.232;19.208;2023-06-22T15:49:09;4.05;;;2.53;;
64957;SDS011;51486;50.232;19.208;2023-06-22T15:51:55;6.38;;;2.90;;
64957;SDS011;51486;50.232;19.208;2023-06-22T15:54:41;5.55;;;2.45;;
64957;SDS011;51486;50.232;19.208;2023-06-22T15:57:27;3.17;;;2.00;;
64957;SDS011;51486;50.232;19.208;2023-06-22T16:00:16;3.15;;;1.98;;
64957;SDS011;51486;50.232;19.208;2023-06-22T16:03:02;6.53;;;3.08;;
64957;SDS011;51486;50.232;19.208;2023-06-22T16:05:48;4.50;;;2.47;;
64957;SDS011;51486;50.232;19.208;2023-06-22T16:08:34;2.72;;;2.10;;
64957;SDS011;51486;50.232;19.208;2023-06-22T16:11:20;6.32;;;2.70;;
64957;SDS011;51486;50.232;19.208;2023-06-22T16:14:06;4.50;;;2.40;;
64957;SDS011;51486;50.232;19.208;2023-06-22T16:16:54;4.68;;;2.50;;
64957;SDS011;51486;50.232;19.208;2023-06-22T16:19:39;5.82;;;2.70;;
64957;SDS011;51486;50.232;19.208;2023-06-22T16:22:25;4.68;;;2.38;;
64957;SDS011;51486;50.232;19.208;2023-06-22T16:25:11;4.30;;;2.42;;
64957;SDS011;51486;50.232;19.208;2023-06-22T16:27:58;5.03;;;2.60;;
64957;SDS011;51486;50.232;19.208;2023-06-22T16:30:43;8.48;;;2.65;;
64957;SDS011;51486;50.232;19.208;2023-06-22T16:33:29;4.97;;;3.05;;
64957;SDS011;51486;50.232;19.208;2023-06-22T16:36:15;3.80;;;2.22;;
64957;SDS011;51486;50.232;19.208;2023-06-22T16:39:01;5.05;;;2.53;;